Time;durP1;ratioP1;P1;durP2;ratioP2;P2;SDS_P1;SDS_P2;PMS_P1;PMS_P2;Temp;Humidity;BMP_temperature;BMP_pressure;BME280_temperature;BME280_humidity;BME280_pressure;Samples;Min_cycle;Max_cycle;Signal;HPM_P1;HPM_P2
2023/09/11 00:00:37;;;;;;;8.70;6.47;;;;;;;25.52;61.27;101339.91;4960501;28;20033;-77
2023/09/11 00:03:02;;;;;;;8.80;6.50;;;;;;;25.52;61.47;101342.56;4960982;28;20599;-75
2023/09/11 00:05:28;;;;;;;8.77;6.72;;;;;;;25.51;61.59;101335.56;4960452;28;20329;-77
2023/09/11 00:07:53;;;;;;;8.63;6.72;;;;;;;25.50;61.32;101332.06;4960864;28;20030;-75
2023/09/11 00:10:19;;;;;;;8.88;6.82;;;;;;;25.50;61.46;101334.72;4961467;28;20043;-76
2023/09/11 00:12:44;;;;;;;6.50;5.72;;;;;;;25.51;61.36;101330.22;4959947;28;20034;-75
2023/09/11 00:15:09;;;;;;;8.07;6.27;;;;;;;25.49;61.57;101326.88;4959823;28;20046;-76
2023/09/11 00:17:35;;;;;;;7.90;6.20;;;;;;;25.50;61.32;101325.88;4992474;28;20289;-76
2023/09/11 00:20:00;;;;;;;7.80;6.15;;;;;;;25.49;61.55;101324.22;4961139;28;20094;-76
2023/09/11 00:22:25;;;;;;;7.53;6.38;;;;;;;25.49;61.35;101322.38;4962220;28;20050;-77
2023/09/11 00:24:51;;;;;;;9.55;6.32;;;;;;;25.49;61.51;101321.53;4961745;28;20038;-77
2023/09/11 00:27:16;;;;;;;7.68;6.05;;;;;;;25.48;61.29;101319.88;4960315;28;20784;-76
2023/09/11 00:29:41;;;;;;;8.48;6.30;;;;;;;25.48;61.30;101320.69;4961142;28;20034;-77
2023/09/11 00:32:06;;;;;;;10.17;6.27;;;;;;;25.48;61.48;101318.03;4961325;28;20103;-76
2023/09/11 00:34:32;;;;;;;9.70;5.83;;;;;;;25.47;60.94;101320.88;4975235;28;20289;-77
2023/09/11 00:36:57;;;;;;;7.22;6.07;;;;;;;25.47;61.37;101321.69;4975301;28;20291;-77
2023/09/11 00:39:23;;;;;;;8.95;6.97;;;;;;;25.47;61.04;101323.53;4960996;28;20027;-77
2023/09/11 00:41:48;;;;;;;10.40;6.75;;;;;;;25.47;61.33;101312.88;4960859;28;20443;-78
2023/09/11 00:44:14;;;;;;;8.90;6.03;;;;;;;25.47;61.50;101312.88;4961238;28;20043;-78
2023/09/11 00:46:40;;;;;;;8.93;6.05;;;;;;;25.46;61.16;101312.00;4960942;28;20796;-78
2023/09/11 00:49:06;;;;;;;7.60;5.97;;;;;;;25.47;61.14;101312.88;4959691;28;20617;-78
2023/09/11 00:51:33;;;;;;;8.80;6.45;;;;;;;25.45;61.16;101309.50;4960677;28;20034;-76
2023/09/11 00:53:59;;;;;;;7.85;6.65;;;;;;;25.45;61.17;101315.72;4960506;28;20023;-76
2023/09/11 00:56:25;;;;;;;8.48;6.13;;;;;;;25.45;61.15;101315.72;4960405;28;20031;-76
2023/09/11 00:58:50;;;;;;;9.27;6.55;;;;;;;25.44;61.31;101316.69;4959746;28;20074;-77
2023/09/11 01:01:16;;;;;;;9.63;6.13;;;;;;;25.44;61.11;101318.53;4960355;28;20047;-78
2023/09/11 01:03:44;;;;;;;6.90;5.93;;;;;;;25.44;61.22;101318.53;4959759;28;20678;-77
2023/09/11 01:06:10;;;;;;;8.15;6.35;;;;;;;25.44;60.98;101308.69;4960761;28;20121;-77
2023/09/11 01:08:35;;;;;;;8.80;6.68;;;;;;;25.44;60.98;101307.84;4960832;28;20110;-76
2023/09/11 01:11:01;;;;;;;9.52;6.85;;;;;;;25.44;61.45;101310.53;4961188;28;20035;-77
2023/09/11 01:13:26;;;;;;;9.95;6.72;;;;;;;25.43;61.12;101298.19;4960953;28;20038;-79
2023/09/11 01:15:59;;;;;;;8.40;6.68;;;;;;;25.43;61.13;101301.66;4959938;28;20114;-78
2023/09/11 01:18:52;;;;;;;8.40;6.78;;;;;;;25.43;61.36;101300.84;4989673;28;20046;-77
2023/09/11 01:21:54;;;;;;;8.18;6.63;;;;;;;25.43;60.88;101303.50;4960114;28;20037;-77
2023/09/11 01:24:54;;;;;;;7.68;6.65;;;;;;;25.42;60.89;101308.03;4959755;28;20519;-77
2023/09/11 01:27:38;;;;;;;8.95;6.50;;;;;;;25.42;61.02;101299.16;4960041;28;20046;-78
2023/09/11 01:30:06;;;;;;;10.30;6.57;;;;;;;25.43;61.05;101301.66;4959797;28;20039;-76
2023/09/11 01:32:33;;;;;;;7.85;6.50;;;;;;;25.42;60.85;101309.84;4959850;28;20667;-75
2023/09/11 01:34:58;;;;;;;9.07;6.50;;;;;;;25.42;60.82;101302.69;4959928;28;20144;-76
2023/09/11 01:37:23;;;;;;;8.90;7.07;;;;;;;25.42;60.89;101301.81;4959761;28;20138;-75
2023/09/11 01:39:49;;;;;;;7.90;6.40;;;;;;;25.41;61.02;101297.50;4960244;28;20257;-77
2023/09/11 01:42:20;;;;;;;7.20;6.05;;;;;;;25.40;60.81;101296.66;4960176;28;20045;-76
2023/09/11 01:44:49;;;;;;;8.98;6.10;;;;;;;25.40;60.97;101291.31;4959517;28;20035;-75
2023/09/11 01:47:21;;;;;;;9.38;6.60;;;;;;;25.40;61.13;101296.66;4960114;28;20030;-78
2023/09/11 01:49:48;;;;;;;12.02;6.53;;;;;;;25.40;60.82;101290.50;4962309;28;20042;-76
2023/09/11 01:52:16;;;;;;;7.32;6.38;;;;;;;25.40;60.80;101290.50;4963108;28;20034;-76
2023/09/11 01:54:42;;;;;;;8.73;6.40;;;;;;;25.39;60.82;101287.00;4963782;28;20034;-77
2023/09/11 01:57:07;;;;;;;8.75;6.97;;;;;;;25.38;60.98;101290.66;4964402;28;20093;-76
2023/09/11 01:59:33;;;;;;;10.18;7.10;;;;;;;25.40;60.87;101290.50;4963502;28;20039;-75
2023/09/11 02:01:58;;;;;;;8.00;7.00;;;;;;;25.40;60.88;101290.50;4963805;28;20058;-77
2023/09/11 02:04:24;;;;;;;9.60;6.77;;;;;;;25.38;60.52;101282.66;4963504;28;20118;-75
2023/09/11 02:06:49;;;;;;;8.02;6.40;;;;;;;25.39;60.75;101283.47;4963376;28;20284;-75
2023/09/11 02:09:14;;;;;;;10.05;6.85;;;;;;;25.39;60.55;101289.66;4963335;28;20030;-75
2023/09/11 02:11:40;;;;;;;8.10;6.40;;;;;;;25.38;60.63;101287.16;4964059;28;20130;-76
2023/09/11 02:14:05;;;;;;;7.57;6.03;;;;;;;25.39;60.65;101280.81;4963171;28;20117;-77
2023/09/11 02:16:31;;;;;;;8.13;6.72;;;;;;;25.38;60.64;101281.81;4964161;28;20511;-78
2023/09/11 02:18:56;;;;;;;6.97;6.10;;;;;;;25.37;60.51;101272.13;4962965;28;20038;-78
2023/09/11 02:21:21;;;;;;;8.85;6.28;;;;;;;25.37;60.56;101272.97;4964457;28;20033;-76
2023/09/11 02:23:47;;;;;;;8.23;6.22;;;;;;;25.37;60.59;101275.63;4963822;28;20039;-76
2023/09/11 02:26:12;;;;;;;7.68;6.05;;;;;;;25.37;60.58;101270.31;4963173;28;20042;-76
2023/09/11 02:28:37;;;;;;;8.50;6.30;;;;;;;25.37;60.72;101269.47;4963771;28;20041;-75
2023/09/11 02:31:03;;;;;;;10.13;6.78;;;;;;;25.37;60.37;101269.47;4995108;28;20065;-76
2023/09/11 02:33:28;;;;;;;7.53;6.38;;;;;;;25.37;60.44;101270.31;4962904;28;20037;-77
2023/09/11 02:35:55;;;;;;;8.18;6.57;;;;;;;25.34;60.60;101258.13;4963507;28;20026;-75
2023/09/11 02:38:20;;;;;;;7.75;6.43;;;;;;;25.34;60.39;101260.81;4964136;28;20523;-75
2023/09/11 02:40:46;;;;;;;7.97;6.15;;;;;;;25.35;60.55;101270.47;4962493;28;20074;-77
2023/09/11 02:43:11;;;;;;;8.80;6.55;;;;;;;25.35;60.63;101265.13;4963936;28;20043;-76
2023/09/11 02:45:36;;;;;;;7.57;6.67;;;;;;;25.35;60.50;101267.78;4963029;28;20396;-79
2023/09/11 02:48:01;;;;;;;7.57;6.63;;;;;;;25.34;60.41;101263.47;4962952;28;20267;-76
2023/09/11 02:50:27;;;;;;;8.98;6.32;;;;;;;25.32;60.28;101262.78;4963221;28;21054;-77
2023/09/11 02:52:52;;;;;;;7.40;6.30;;;;;;;25.34;60.38;101259.94;4963394;28;20507;-76
2023/09/11 02:55:17;;;;;;;7.10;6.10;;;;;;;25.32;60.05;101265.44;4962656;28;20279;-76
2023/09/11 02:57:43;;;;;;;8.05;5.97;;;;;;;25.34;60.15;101270.63;4963416;28;20035;-76
2023/09/11 03:00:09;;;;;;;8.18;6.32;;;;;;;25.33;60.15;101260.97;4962070;28;20030;-76
2023/09/11 03:02:34;;;;;;;8.95;6.85;;;;;;;25.34;60.39;101270.63;4962028;28;20042;-76
2023/09/11 03:05:00;;;;;;;7.53;5.93;;;;;;;25.32;60.13;101256.63;4962635;28;20038;-75
2023/09/11 03:07:25;;;;;;;7.93;6.07;;;;;;;25.32;60.20;101257.44;4963815;28;20041;-77
2023/09/11 03:09:50;;;;;;;9.05;6.65;;;;;;;25.33;60.18;101252.97;4962694;28;20045;-77
2023/09/11 03:12:16;;;;;;;9.57;6.30;;;;;;;25.32;60.17;101252.13;4963044;28;20034;-76
2023/09/11 03:14:41;;;;;;;9.27;6.23;;;;;;;25.32;60.06;101251.28;4962603;28;20257;-78
2023/09/11 03:17:06;;;;;;;7.88;6.22;;;;;;;25.32;60.06;101245.94;4993653;28;20296;-76
2023/09/11 03:19:36;;;;;;;7.80;6.40;;;;;;;25.30;60.09;101240.78;4962676;28;20169;-77
2023/09/11 03:22:01;;;;;;;7.20;6.35;;;;;;;25.30;59.99;101243.44;4977847;28;20035;-76
2023/09/11 03:24:27;;;;;;;6.57;5.85;;;;;;;25.30;59.98;101239.94;4962510;28;20058;-77
2023/09/11 03:26:52;;;;;;;7.82;6.00;;;;;;;25.31;60.10;101239.78;4962277;28;20412;-78
2023/09/11 03:29:17;;;;;;;7.38;5.85;;;;;;;25.31;59.41;101231.78;4962174;28;20039;-77
2023/09/11 03:31:43;;;;;;;8.30;6.43;;;;;;;25.31;59.93;101228.25;4961777;28;20042;-78
2023/09/11 03:34:11;;;;;;;7.18;6.35;;;;;;;25.31;60.17;101236.28;4961788;28;20363;-77
2023/09/11 03:36:36;;;;;;;9.40;6.40;;;;;;;25.30;59.66;101229.28;4961359;28;20031;-76
2023/09/11 03:39:02;;;;;;;6.75;5.80;;;;;;;25.30;59.95;101222.09;4961471;28;20045;-76
2023/09/11 03:41:28;;;;;;;8.25;6.40;;;;;;;25.28;59.80;101226.78;4961628;28;20101;-77
2023/09/11 03:43:53;;;;;;;7.47;6.32;;;;;;;25.30;60.12;101231.94;4960495;28;20373;-77
2023/09/11 03:46:18;;;;;;;9.03;6.57;;;;;;;25.29;59.82;101230.28;4961670;28;20451;-76
2023/09/11 03:48:44;;;;;;;7.40;6.40;;;;;;;25.29;59.99;101224.94;4961497;28;20269;-78
2023/09/11 03:51:09;;;;;;;7.93;6.50;;;;;;;25.28;59.82;101221.44;4961345;28;20035;-78
2023/09/11 03:53:35;;;;;;;9.63;6.50;;;;;;;25.28;59.54;101212.63;4961627;28;20026;-76
2023/09/11 03:56:01;;;;;;;7.07;6.25;;;;;;;25.29;59.79;101219.59;4961970;28;21254;-76
2023/09/11 03:58:26;;;;;;;7.80;6.40;;;;;;;25.29;59.93;101216.94;4975943;28;20464;-76
2023/09/11 04:00:54;;;;;;;8.50;6.85;;;;;;;25.29;59.74;101200.94;4959472;28;20034;-77
2023/09/11 04:03:20;;;;;;;8.30;5.93;;;;;;;25.28;59.74;101201.94;4961852;28;20073;-77
2023/09/11 04:05:45;;;;;;;8.50;6.22;;;;;;;25.27;59.54;101198.41;4960498;28;20030;-76
2023/09/11 04:08:10;;;;;;;8.20;6.35;;;;;;;25.28;59.69;101196.63;4961337;28;20039;-76
2023/09/11 04:10:36;;;;;;;8.27;5.75;;;;;;;25.28;59.56;101189.44;4960905;28;20030;-77
2023/09/11 04:13:01;;;;;;;8.05;6.03;;;;;;;25.28;59.75;101196.63;4959538;28;20042;-76
2023/09/11 04:15:26;;;;;;;7.97;6.32;;;;;;;25.28;59.42;101193.94;4960529;28;20506;-76
2023/09/11 04:17:54;;;;;;;9.32;5.88;;;;;;;25.26;59.34;101187.88;4992273;28;20035;-76
2023/09/11 04:20:21;;;;;;;8.98;6.53;;;;;;;25.26;59.54;101187.88;4960768;28;20423;-75
2023/09/11 04:22:46;;;;;;;7.75;6.53;;;;;;;25.26;59.40;101187.88;4961166;28;20326;-75
2023/09/11 04:25:12;;;;;;;7.45;6.00;;;;;;;25.27;59.62;101185.06;4960811;28;20053;-75
2023/09/11 04:27:37;;;;;;;9.38;7.18;;;;;;;25.25;59.64;101173.72;4960408;28;20026;-76
2023/09/11 04:30:04;;;;;;;8.23;6.38;;;;;;;25.25;59.32;101176.41;4961041;28;20042;-77
2023/09/11 04:32:30;;;;;;;8.20;6.20;;;;;;;25.25;59.30;101171.06;4961060;28;20126;-76
2023/09/11 04:34:55;;;;;;;8.75;6.40;;;;;;;25.24;59.39;101171.22;4959922;28;20035;-76
2023/09/11 04:37:20;;;;;;;8.38;6.22;;;;;;;25.25;59.38;101176.41;4991731;28;20648;-76
2023/09/11 04:39:46;;;;;;;7.18;5.70;;;;;;;25.24;59.25;101182.72;4959850;28;20069;-76
2023/09/11 04:42:11;;;;;;;7.57;6.30;;;;;;;25.25;59.39;101179.06;4965148;28;20069;-75
2023/09/11 04:44:36;;;;;;;8.60;6.32;;;;;;;25.25;59.32;101183.56;4995098;28;20034;-77
2023/09/11 04:47:02;;;;;;;9.80;6.13;;;;;;;25.24;58.98;101184.56;4960381;28;20038;-76
2023/09/11 04:49:28;;;;;;;7.05;6.18;;;;;;;25.24;59.38;101185.38;4960699;28;20038;-76
2023/09/11 04:51:53;;;;;;;8.70;6.00;;;;;;;25.23;59.21;101182.88;4960432;28;20027;-76
2023/09/11 04:54:19;;;;;;;7.35;6.25;;;;;;;25.22;59.20;101190.06;4960297;28;20295;-76
2023/09/11 04:56:44;;;;;;;8.05;6.00;;;;;;;25.23;59.13;101182.88;4960926;28;20027;-78
2023/09/11 04:59:10;;;;;;;8.55;6.15;;;;;;;25.22;59.26;101182.06;4960684;28;20121;-75
2023/09/11 05:01:35;;;;;;;9.05;6.18;;;;;;;25.22;59.05;101192.72;4960004;28;20041;-77
2023/09/11 05:04:02;;;;;;;8.50;6.50;;;;;;;25.23;58.99;101190.88;4960340;28;20039;-77
2023/09/11 05:06:27;;;;;;;7.18;6.20;;;;;;;25.22;59.24;101189.22;4960286;28;20133;-77
2023/09/11 05:08:52;;;;;;;7.28;5.88;;;;;;;25.21;58.93;101200.88;4959765;28;20860;-76
2023/09/11 05:11:18;;;;;;;8.63;6.78;;;;;;;25.22;59.41;101202.56;4960620;28;20119;-78
2023/09/11 05:13:43;;;;;;;8.93;7.07;;;;;;;25.22;59.31;101198.06;4960411;28;20455;-77
2023/09/11 05:16:08;;;;;;;7.50;6.57;;;;;;;25.22;59.09;101191.91;4959559;28;20284;-77
2023/09/11 05:18:33;;;;;;;9.20;6.80;;;;;;;25.20;59.02;101202.72;4960616;28;20049;-77
2023/09/11 05:20:59;;;;;;;7.78;6.40;;;;;;;25.20;58.76;101200.06;4959988;28;20876;-77
2023/09/11 05:23:24;;;;;;;11.35;6.00;;;;;;;25.22;58.85;101206.06;4959922;28;20070;-76
2023/09/11 05:25:49;;;;;;;7.68;5.60;;;;;;;25.21;59.09;101203.56;4963775;28;20924;-77
2023/09/11 05:28:15;;;;;;;9.07;6.20;;;;;;;25.21;58.78;101198.22;4963919;28;20508;-76
2023/09/11 05:30:40;;;;;;;7.83;6.10;;;;;;;25.21;59.04;101190.22;4962766;28;20047;-77
2023/09/11 05:33:06;;;;;;;8.00;5.85;;;;;;;25.20;58.78;101202.72;4964115;28;20280;-77
2023/09/11 05:35:31;;;;;;;9.52;5.82;;;;;;;25.21;58.62;101214.22;4963756;28;20030;-77
2023/09/11 05:37:57;;;;;;;7.82;6.45;;;;;;;25.21;59.01;101214.22;4994521;28;20066;-76
2023/09/11 05:40:23;;;;;;;8.27;6.53;;;;;;;25.19;59.04;101209.03;4963778;28;20492;-77
2023/09/11 05:42:48;;;;;;;6.95;6.18;;;;;;;25.20;58.76;101216.06;4963804;28;20438;-76
2023/09/11 05:45:13;;;;;;;8.82;5.68;;;;;;;25.20;58.69;101210.72;4963326;28;20480;-76
2023/09/11 05:47:40;;;;;;;8.15;5.60;;;;;;;25.20;59.01;101216.06;4963858;28;20050;-79
2023/09/11 05:50:07;;;;;;;9.02;6.05;;;;;;;25.20;58.71;101220.53;4963127;28;20886;-76
2023/09/11 05:52:34;;;;;;;7.97;6.30;;;;;;;25.19;58.85;101222.38;4963898;28;20035;-75
2023/09/11 05:54:59;;;;;;;7.55;6.00;;;;;;;25.18;58.96;101218.03;4964104;28;20089;-76
2023/09/11 05:57:24;;;;;;;9.40;6.60;;;;;;;25.20;58.95;101223.22;4962376;28;20042;-76
2023/09/11 05:59:50;;;;;;;8.35;5.97;;;;;;;25.20;59.15;101228.53;4963406;28;21133;-75
2023/09/11 06:02:15;;;;;;;8.30;5.77;;;;;;;25.19;58.81;101230.38;4962216;28;20056;-75
2023/09/11 06:04:40;;;;;;;7.45;5.72;;;;;;;25.20;58.84;101231.22;4963235;28;20300;-75
2023/09/11 06:07:05;;;;;;;7.37;5.80;;;;;;;25.19;59.24;101230.38;4963869;28;20093;-73
2023/09/11 06:09:31;;;;;;;8.50;5.75;;;;;;;25.23;58.82;101233.56;4963438;28;20761;-74
2023/09/11 06:11:57;;;;;;;7.50;5.93;;;;;;;25.22;58.76;101235.41;4962209;28;20177;-76
2023/09/11 06:14:22;;;;;;;8.82;6.70;;;;;;;25.20;58.73;101234.72;4963406;28;20041;-77
2023/09/11 06:16:48;;;;;;;7.22;6.22;;;;;;;25.17;58.77;101230.53;4977627;28;20608;-76
2023/09/11 06:19:13;;;;;;;10.27;5.93;;;;;;;25.17;59.04;101238.53;4993689;28;20042;-80
2023/09/11 06:21:38;;;;;;;8.20;6.10;;;;;;;25.18;58.99;101234.03;4963163;28;20031;-76
2023/09/11 06:24:05;;;;;;;7.30;5.85;;;;;;;25.16;59.01;101230.72;4963496;28;20495;-78
2023/09/11 06:26:30;;;;;;;10.93;6.20;;;;;;;25.18;59.11;101236.69;4962797;28;20044;-77
2023/09/11 06:28:55;;;;;;;7.73;6.37;;;;;;;25.17;59.47;101235.88;4963346;28;20470;-75
2023/09/11 06:31:21;;;;;;;12.10;5.93;;;;;;;25.18;59.19;101228.69;4963882;28;20268;-75
2023/09/11 06:33:46;;;;;;;7.90;6.18;;;;;;;25.19;59.58;101233.06;4962962;28;20326;-76
2023/09/11 06:36:11;;;;;;;10.85;6.25;;;;;;;25.19;59.46;101238.38;4962023;28;20116;-79
2023/09/11 06:38:37;;;;;;;9.05;6.07;;;;;;;25.19;59.36;101243.72;4962891;28;20066;-76
2023/09/11 06:41:03;;;;;;;8.38;5.60;;;;;;;25.19;59.56;101243.72;4993666;28;20407;-75
2023/09/11 06:43:28;;;;;;;7.60;5.95;;;;;;;25.21;59.79;101249.72;4962781;28;20041;-76
2023/09/11 06:45:54;;;;;;;10.57;5.93;;;;;;;25.21;59.66;101243.56;4962685;28;20031;-75
2023/09/11 06:48:21;;;;;;;8.38;5.97;;;;;;;25.22;59.45;101242.56;4962108;28;20796;-80
2023/09/11 06:50:46;;;;;;;7.68;5.78;;;;;;;25.22;59.31;101237.25;4994323;28;20039;-78
2023/09/11 06:53:11;;;;;;;8.23;5.95;;;;;;;25.22;59.66;101240.72;4963108;28;20488;-79
2023/09/11 06:55:44;;;;;;;9.65;6.18;;;;;;;25.22;59.50;101243.41;4963034;28;20054;-79
2023/09/11 06:58:09;;;;;;;6.93;6.10;;;;;;;25.23;59.59;101246.88;4977472;28;20481;-76
2023/09/11 07:00:36;;;;;;;7.47;5.90;;;;;;;25.23;59.49;101246.88;4962547;28;20146;-79
2023/09/11 07:03:01;;;;;;;11.13;7.45;;;;;;;25.22;59.41;101242.56;4963529;28;20042;-80
2023/09/11 07:05:27;;;;;;;8.88;6.25;;;;;;;25.24;59.61;101244.06;4963159;28;20066;-74
2023/09/11 07:07:53;;;;;;;7.68;6.28;;;;;;;25.24;59.68;101233.38;4961090;28;20094;-82
2023/09/11 07:10:18;;;;;;;10.95;6.28;;;;;;;25.26;59.90;101238.56;4993686;28;20081;-75
2023/09/11 07:12:44;;;;;;;8.55;6.03;;;;;;;25.25;59.69;101228.91;4960870;28;20035;-77
2023/09/11 07:15:10;;;;;;;9.52;6.13;;;;;;;25.27;59.81;101229.56;4962224;28;20246;-84
2023/09/11 07:17:36;;;;;;;8.63;5.97;;;;;;;25.28;59.69;101225.94;4962372;28;20054;-74
2023/09/11 07:20:05;;;;;;;8.38;6.20;;;;;;;25.29;59.75;101224.94;4960850;28;20074;-76
2023/09/11 07:22:31;;;;;;;7.70;6.03;;;;;;;25.29;59.79;101225.78;4962213;28;20049;-83
2023/09/11 07:24:56;;;;;;;8.70;6.00;;;;;;;25.30;60.00;101234.63;4962510;28;20066;-73
2023/09/11 07:27:22;;;;;;;9.07;6.00;;;;;;;25.30;59.55;101226.63;4993273;28;20030;-76
2023/09/11 07:29:49;;;;;;;7.22;6.18;;;;;;;25.31;59.59;101231.78;4962543;28;20030;-79
2023/09/11 07:32:15;;;;;;;7.50;6.10;;;;;;;25.35;59.35;101235.78;4960340;28;20446;-80
2023/09/11 07:34:40;;;;;;;8.75;6.25;;;;;;;25.38;59.48;101239.97;4961138;28;20118;-81
2023/09/11 07:37:06;;;;;;;7.47;6.25;;;;;;;25.39;59.40;101241.66;4960560;28;20030;-79
2023/09/11 07:39:31;;;;;;;10.93;6.45;;;;;;;25.42;59.59;101238.66;4960402;28;20173;-76
2023/09/11 07:41:56;;;;;;;9.07;5.85;;;;;;;25.41;59.31;101249.50;4960726;28;20519;-75
2023/09/11 07:44:22;;;;;;;8.82;6.22;;;;;;;25.42;59.14;101252.00;4960831;28;20137;-77
2023/09/11 07:46:48;;;;;;;10.88;6.82;;;;;;;25.43;59.45;101250.16;4960840;28;20033;-82
2023/09/11 07:49:14;;;;;;;8.40;6.68;;;;;;;25.44;59.47;101243.81;4961088;28;20034;-79
2023/09/11 07:51:39;;;;;;;10.90;8.20;;;;;;;25.42;57.67;101248.47;4960482;28;20041;-78
2023/09/11 07:54:05;;;;;;;11.23;8.27;;;;;;;25.40;56.43;101248.63;4961822;28;20442;-70
2023/09/11 07:56:30;;;;;;;14.60;9.10;;;;;;;25.38;56.80;101253.31;4961088;28;20522;-75
2023/09/11 07:58:56;;;;;;;16.23;9.27;;;;;;;25.38;57.21;101260.50;4991622;28;20563;-80
2023/09/11 08:01:25;;;;;;;13.35;9.00;;;;;;;25.35;56.63;101257.13;4992812;28;20050;-75
2023/09/11 08:03:51;;;;;;;16.55;9.23;;;;;;;25.33;57.21;101258.31;4961935;28;20086;-77
2023/09/11 08:06:16;;;;;;;13.73;9.98;;;;;;;25.30;57.40;101270.13;4961213;28;20027;-80
2023/09/11 08:08:42;;;;;;;12.77;9.48;;;;;;;25.30;57.18;101270.13;4961058;28;20031;-78
2023/09/11 08:11:15;;;;;;;16.23;10.07;;;;;;;25.28;56.99;101265.97;4961097;28;20331;-73
2023/09/11 08:13:46;;;;;;;17.95;9.80;;;;;;;25.28;57.78;101276.63;4962284;28;20081;-73
2023/09/11 08:16:14;;;;;;;15.98;9.60;;;;;;;25.24;57.38;101265.41;4962483;28;20088;-73
2023/09/11 08:18:40;;;;;;;14.50;10.00;;;;;;;25.26;57.47;101273.25;4961097;28;20042;-75
2023/09/11 08:21:05;;;;;;;16.30;9.82;;;;;;;25.26;58.13;101275.91;4961372;28;20400;-77
2023/09/11 08:23:30;;;;;;;14.23;9.93;;;;;;;25.26;58.70;101275.91;4961279;28;20038;-75
2023/09/11 08:26:01;;;;;;;15.50;10.65;;;;;;;25.26;57.85;101262.56;4960452;28;20133;-75
2023/09/11 08:28:30;;;;;;;14.82;10.60;;;;;;;25.28;57.91;101272.13;4960675;28;20034;-69
2023/09/11 08:30:55;;;;;;;14.73;10.25;;;;;;;25.29;58.02;101264.94;4960615;28;20559;-75
2023/09/11 08:33:22;;;;;;;16.10;10.32;;;;;;;25.29;57.96;101264.94;4961466;28;20038;-76
2023/09/11 08:35:48;;;;;;;15.93;10.30;;;;;;;25.31;57.90;101268.28;4961022;28;20384;-76
2023/09/11 08:38:17;;;;;;;14.07;10.68;;;;;;;25.32;57.33;101267.28;4961756;28;20035;-77
2023/09/11 08:40:44;;;;;;;14.88;9.65;;;;;;;25.33;58.22;101263.63;4960849;28;20672;-80
2023/09/11 08:43:09;;;;;;;17.80;10.10;;;;;;;25.39;58.35;101267.47;4960548;28;20045;-82
2023/09/11 08:45:36;;;;;;;13.95;9.30;;;;;;;25.38;58.37;101269.31;4960658;28;20035;-73
2023/09/11 08:48:07;;;;;;;13.45;9.45;;;;;;;25.38;58.16;101274.66;4960041;28;20046;-73
2023/09/11 08:50:36;;;;;;;14.85;10.30;;;;;;;25.37;57.81;101275.63;4962355;28;20039;-79
2023/09/11 08:53:02;;;;;;;14.23;9.75;;;;;;;25.37;58.44;101275.63;4961340;28;20042;-77
2023/09/11 08:55:29;;;;;;;14.57;10.23;;;;;;;25.37;57.85;101264.13;4993273;28;20039;-74
2023/09/11 08:57:59;;;;;;;14.55;9.95;;;;;;;25.37;58.10;101264.13;4961533;28;20547;-82
2023/09/11 09:00:27;;;;;;;13.88;9.15;;;;;;;25.39;58.03;101263.00;4997926;28;20043;-74
2023/09/11 09:02:53;;;;;;;14.00;10.20;;;;;;;25.41;57.92;101276.16;4967668;28;20385;-74
2023/09/11 09:05:20;;;;;;;12.27;8.82;;;;;;;25.42;59.05;101280.50;4999205;28;20037;-82
2023/09/11 09:07:47;;;;;;;14.95;9.43;;;;;;;25.44;58.88;101273.19;4967380;28;20039;-80
2023/09/11 09:10:13;;;;;;;12.45;9.05;;;;;;;25.43;59.63;101272.31;4968234;28;20042;-79
2023/09/11 09:12:40;;;;;;;12.57;9.00;;;;;;;25.45;58.98;101267.69;4966179;28;20129;-77
2023/09/11 09:15:06;;;;;;;15.40;9.32;;;;;;;25.45;59.16;101269.50;4997267;28;20053;-76
2023/09/11 09:17:31;;;;;;;12.98;9.38;;;;;;;25.47;58.70;101272.84;4966265;28;20508;-76
2023/09/11 09:19:57;;;;;;;13.07;10.15;;;;;;;25.49;59.35;101268.19;4966653;28;20113;-74
2023/09/11 09:22:22;;;;;;;16.15;9.95;;;;;;;25.50;58.76;101268.00;4967740;28;20039;-72
2023/09/11 09:24:48;;;;;;;12.75;8.88;;;;;;;25.53;58.39;101269.50;4968329;28;20472;-78
2023/09/11 09:27:13;;;;;;;12.83;8.47;;;;;;;25.53;59.18;101275.69;4968510;28;20507;-74
2023/09/11 09:29:39;;;;;;;16.25;9.82;;;;;;;25.55;58.45;101272.88;4967450;28;20374;-82
2023/09/11 09:32:07;;;;;;;12.45;8.30;;;;;;;25.55;58.88;101269.34;4968231;28;20034;-78
2023/09/11 09:34:35;;;;;;;11.18;8.90;;;;;;;25.57;58.24;101267.38;4966714;28;20121;-75
2023/09/11 09:37:01;;;;;;;12.30;8.63;;;;;;;25.57;58.37;101265.53;4965803;28;20053;-76
2023/09/11 09:39:29;;;;;;;14.50;7.53;;;;;;;25.58;58.66;101269.88;4967035;28;20031;-76
2023/09/11 09:41:58;;;;;;;15.48;7.53;;;;;;;25.60;58.44;101278.53;4968302;28;20077;-75
2023/09/11 09:44:27;;;;;;;9.82;7.57;;;;;;;25.59;58.73;101266.19;4967895;28;20097;-77
2023/09/11 09:46:53;;;;;;;11.25;7.82;;;;;;;25.62;58.58;101270.38;4967381;28;20108;-77
2023/09/11 09:49:21;;;;;;;10.73;7.57;;;;;;;25.64;58.30;101271.88;4998122;28;20467;-80
2023/09/11 09:51:46;;;;;;;11.65;7.28;;;;;;;25.65;58.61;101260.19;4968899;28;20027;-75
2023/09/11 09:54:11;;;;;;;9.55;7.20;;;;;;;25.67;58.55;101268.84;4967726;28;20045;-76
2023/09/11 09:56:37;;;;;;;11.57;6.85;;;;;;;25.66;58.42;101259.19;4967439;28;20476;-76
2023/09/11 09:59:02;;;;;;;11.13;7.20;;;;;;;25.67;58.30;101260.84;4967946;28;20042;-76
2023/09/11 10:01:28;;;;;;;14.25;7.00;;;;;;;25.69;58.20;101260.69;4967856;28;20031;-75
2023/09/11 10:03:53;;;;;;;14.02;7.20;;;;;;;25.69;58.14;101266.03;4965678;28;20038;-77
2023/09/11 10:06:28;;;;;;;9.98;7.45;;;;;;;25.67;58.67;101263.53;4967554;28;20035;-75
2023/09/11 10:09:13;;;;;;;12.05;7.05;;;;;;;25.69;58.62;101266.03;4980998;28;20034;-77
2023/09/11 10:11:40;;;;;;;10.98;7.22;;;;;;;25.71;58.41;101270.22;4976242;28;20047;-71
2023/09/11 10:14:08;;;;;;;11.45;7.00;;;;;;;25.74;58.25;101257.53;4963010;28;20220;-74
2023/09/11 10:16:36;;;;;;;8.32;6.32;;;;;;;25.74;58.38;101265.53;4977274;28;20455;-78
2023/09/11 10:19:03;;;;;;;10.57;6.75;;;;;;;25.75;58.56;101267.22;4963283;28;20031;-79
2023/09/11 10:21:31;;;;;;;12.18;6.75;;;;;;;25.75;58.56;101259.22;4965156;28;20033;-79
2023/09/11 10:23:57;;;;;;;10.82;6.53;;;;;;;25.76;58.66;101259.03;4963265;28;20042;-79
2023/09/11 10:26:46;;;;;;;10.68;6.90;;;;;;;25.76;58.57;101260.88;4966375;28;20121;-80
2023/09/11 10:29:22;;;;;;;8.45;6.65;;;;;;;25.77;58.56;101259.88;4965836;28;20494;-74
2023/09/11 10:32:18;;;;;;;10.43;6.45;;;;;;;25.77;58.57;101255.38;4967423;28;20512;-76
2023/09/11 10:34:45;;;;;;;9.48;6.38;;;;;;;25.81;58.71;101248.69;4965333;28;20058;-79
2023/09/11 10:37:10;;;;;;;9.88;6.40;;;;;;;25.81;58.67;101247.88;4964340;28;20134;-80
2023/09/11 10:39:37;;;;;;;8.40;6.15;;;;;;;25.80;58.74;101247.06;4978933;28;20623;-80
2023/09/11 10:42:03;;;;;;;9.68;7.15;;;;;;;25.81;58.88;101251.38;4963762;28;20039;-78
2023/09/11 10:44:34;;;;;;;11.27;6.45;;;;;;;25.80;58.82;101249.72;4960152;28;20435;-78
2023/09/11 10:47:03;;;;;;;7.45;6.20;;;;;;;25.81;58.59;101251.38;4961397;28;20038;-75
2023/09/11 10:49:34;;;;;;;8.07;6.22;;;;;;;25.82;58.56;101247.72;4993829;28;20073;-75
2023/09/11 10:51:59;;;;;;;9.18;6.55;;;;;;;25.81;58.59;101243.34;4962482;28;20031;-73
2023/09/11 10:54:25;;;;;;;9.65;6.68;;;;;;;25.82;58.58;101247.72;4962804;28;20039;-78
2023/09/11 10:56:51;;;;;;;8.90;6.00;;;;;;;25.86;58.75;101238.34;4964008;28;20035;-78
2023/09/11 10:59:23;;;;;;;8.38;5.95;;;;;;;25.85;58.64;101241.19;4997372;28;20495;-76
2023/09/11 11:01:48;;;;;;;7.97;5.60;;;;;;;25.89;58.64;101238.00;4963854;28;20354;-77
2023/09/11 11:04:16;;;;;;;7.63;5.90;;;;;;;25.89;58.73;101239.84;4961090;28;20042;-78
2023/09/11 11:06:45;;;;;;;8.38;6.20;;;;;;;25.88;58.67;101241.72;4961128;28;20050;-75
2023/09/11 11:09:47;;;;;;;8.30;6.13;;;;;;;25.91;58.66;101237.84;4961410;28;20047;-76
2023/09/11 11:12:18;;;;;;;8.95;6.22;;;;;;;25.94;58.64;101234.84;4961735;28;20573;-77
2023/09/11 11:15:17;;;;;;;7.95;6.25;;;;;;;25.93;59.15;101233.19;4962766;28;20035;-74
2023/09/11 11:17:42;;;;;;;7.90;5.47;;;;;;;25.96;58.59;101245.34;4963645;28;20047;-76
2023/09/11 11:20:08;;;;;;;8.55;6.40;;;;;;;25.94;58.69;101240.19;4963341;28;20050;-76